New Pine Creek, Oregon
Current Conditions -  °F | °C
As of 6:35 PM on Wednesday 17 Dec 2014 (Local Time) from KLKV Reporting Station
Overcast Overcast  
Wind Chill: 29°   Ceiling: 2300
Heat Index: 36°   Visibility: 10mi
Dew Point: 32°   Wind: 8mph
Humidity: 87%   Direction: 150°SSE
Pressure: 29.96"   Gusts: NA
Location:  42°N, 120.3°W
Report Text: KLKV 180235Z 15007KT 10SM BKN023 BKN030 OVC060 02/00 A2996 RMK AO1
Loading
Personal Weather Stations






























Interactive Weather Map New forecast layout! Learn more

10-Day Weather Forecast

Advertisements
Track Severe Weather on mobile